CheckWX is a tool to help pilots better visualize weather data.  It is not intended as a substitute for an official pre-flight weather briefing.

00:29:32 UTC

KFME METAR
Tipton Airport
Fort Meade(Odenton), Maryland, USA
Current

27 mins ago

KFME 170003Z AUTO 10003KT 10SM OVC120 24/19 A3000 RMK AO1
Observed
Sep-17 @ 00:03 UTC
Wind
  • 100° at 3 KTS
Visibility
10 SM
Flight Rules
VFR
Cloud Levels
  • Overcast at 12,000' AGL
Temperature
24°C / 75°F
Dewpoint
19°C / 66°F
Humidity
74%
Altimeter
30" Hg
Pressure
1015.92 hPa
Previous

48 mins ago

KFME 162342Z AUTO 10003KT 10SM OVC120 25/18 A3000 RMK AO1
Observed
Sep-16 @ 23:42 UTC
Wind
  • 100° at 3 KTS
Visibility
10 SM
Flight Rules
VFR
Cloud Levels
  • Overcast at 12,000' AGL
Temperature
25°C / 77°F
Dewpoint
18°C / 64°F
Humidity
65%
Altimeter
30" Hg
Pressure
1015.92 hPa
Previous

1 hour ago

KFME 162321Z AUTO 00000KT 10SM OVC120 25/18 A2999 RMK AO1
Observed
Sep-16 @ 23:21 UTC
Visibility
10 SM
Flight Rules
VFR
Cloud Levels
  • Overcast at 12,000' AGL
Temperature
25°C / 77°F
Dewpoint
18°C / 64°F
Humidity
65%
Altimeter
29.99" Hg
Pressure
1015.62 hPa